Aviation Digital Data Service (ADDS)

Output produced by METARs form (1714 UTC 24 February 2017)
found at http://aviationweather.gov/adds/metars/
 
KSLK 241414Z 2414/2512 VRB04KT P6SM VCSH FEW002 SCT025 OVC045 
     TEMPO 2415/2419 2SM -SHRA BR BKN015 OVC025 
     FM241900 VRB03KT P6SM VCSH OVC030 
     FM242200 VRB03KT P6SM VCSH BKN030 WS020/22035KT 
     FM250200 17005KT P6SM BKN025 WS020/21040KT 
     FM250600 19007KT P6SM BKN035 
     FM250900 18009KT P6SM BKN010